createdAt,value
2017-06-14T00:01:02.207Z,12.65
2017-06-14T00:02:11.094Z,12.7
2017-06-14T00:03:19.979Z,12.78
2017-06-14T00:04:29.191Z,12.95
2017-06-14T00:05:38.402Z,12.87
2017-06-14T00:06:47.760Z,12.78
2017-06-14T00:07:56.644Z,12.83
2017-06-14T00:09:05.853Z,12.79
2017-06-14T00:10:15.065Z,12.71
2017-06-14T00:11:23.957Z,12.78
2017-06-14T00:12:32.843Z,12.7
2017-06-14T00:13:42.375Z,12.87
2017-06-14T00:14:51.265Z,12.83
2017-06-14T00:16:00.154Z,12.85
2017-06-14T00:17:09.365Z,12.92
2017-06-14T00:18:18.411Z,12.79
2017-06-14T00:19:27.302Z,12.78
2017-06-14T00:20:36.510Z,12.85
2017-06-14T00:21:45.396Z,12.78
2017-06-14T00:22:54.929Z,12.79
2017-06-14T00:24:04.116Z,12.77
2017-06-14T00:25:13.001Z,12.75
2017-06-14T00:26:21.886Z,12.78
2017-06-14T00:27:31.420Z,12.68
2017-06-14T00:28:40.304Z,12.7
2017-06-14T00:29:49.568Z,12.7
2017-06-14T00:30:58.466Z,12.71
2017-06-14T00:32:07.358Z,12.7
2017-06-14T00:33:16.591Z,12.67
2017-06-14T00:34:25.800Z,12.53
2017-06-14T00:35:35.390Z,12.54
2017-06-14T00:36:44.277Z,12.53
2017-06-14T00:37:53.484Z,12.5
2017-06-14T00:39:02.692Z,12.53
2017-06-14T00:40:11.579Z,12.53
2017-06-14T00:41:20.616Z,12.46
2017-06-14T00:42:29.833Z,12.52
2017-06-14T00:43:39.044Z,12.39
2017-06-14T00:44:48.256Z,12.42
2017-06-14T00:45:57.141Z,12.38
2017-06-14T00:47:06.503Z,12.34
2017-06-14T00:48:16.082Z,12.31
2017-06-14T00:49:24.967Z,12.37
2017-06-14T00:50:33.861Z,12.37
2017-06-14T00:51:43.071Z,12.23
2017-06-14T00:52:52.376Z,12.32
2017-06-14T00:54:01.586Z,12.31
2017-06-14T00:55:10.796Z,12.29
2017-06-14T00:56:20.005Z,12.39
2017-06-14T00:57:29.462Z,12.42
2017-06-14T00:58:39.093Z,12.42
2017-06-14T00:59:47.985Z,12.38
2017-06-14T01:00:56.875Z,12.35
2017-06-14T01:02:06.089Z,12.41
2017-06-14T01:03:15.302Z,12.34
2017-06-14T01:04:24.188Z,12.28
2017-06-14T01:05:33.404Z,12.31
2017-06-14T01:06:42.290Z,12.29
2017-06-14T01:07:51.505Z,12.32
2017-06-14T01:09:00.391Z,12.28
2017-06-14T01:10:09.612Z,12.13
2017-06-14T01:11:18.503Z,12.16
2017-06-14T01:12:27.395Z,12.17
2017-06-14T01:13:36.608Z,12.13
2017-06-14T01:14:45.489Z,12.19
2017-06-14T01:15:54.525Z,12.12
2017-06-14T01:17:03.735Z,12.17
2017-06-14T01:18:12.625Z,12.14
2017-06-14T01:19:21.843Z,12.21
2017-06-14T01:20:30.725Z,12.14
2017-06-14T01:21:39.759Z,12.14
2017-06-14T01:22:48.653Z,12.05
2017-06-14T01:23:58.190Z,12.13
2017-06-14T01:25:07.076Z,12.13
2017-06-14T01:26:15.964Z,12.09
2017-06-14T01:27:25.601Z,12.05
2017-06-14T01:28:34.811Z,12.09
2017-06-14T01:29:44.022Z,12.1
2017-06-14T01:30:53.233Z,12.09
2017-06-14T01:32:02.453Z,12.02
2017-06-14T01:33:11.810Z,11.95
2017-06-14T01:34:20.697Z,12.02
2017-06-14T01:35:29.586Z,12.09
2017-06-14T01:36:38.470Z,12.07
2017-06-14T01:37:47.679Z,12.16
2017-06-14T01:38:57.367Z,12.13
2017-06-14T01:40:06.586Z,12.16
2017-06-14T01:41:15.471Z,12.2
2017-06-14T01:42:24.356Z,12.13
2017-06-14T01:43:33.570Z,12.17
2017-06-14T01:44:43.106Z,12.14
2017-06-14T01:45:52.320Z,12.27
2017-06-14T01:47:01.202Z,12.53
2017-06-14T01:48:10.420Z,12.47
2017-06-14T01:49:19.308Z,12.42
2017-06-14T01:50:28.244Z,12.53
2017-06-14T01:51:37.458Z,12.46
2017-06-14T01:52:46.669Z,12.27
2017-06-14T01:53:55.556Z,12.28
2017-06-14T01:55:04.482Z,12.24
2017-06-14T01:56:13.747Z,12.23
2017-06-14T01:57:22.631Z,12.29
2017-06-14T01:58:31.521Z,12.32
2017-06-14T01:59:41.057Z,12.31
2017-06-14T02:00:49.938Z,12.23
2017-06-14T02:01:58.825Z,12.16
2017-06-14T02:03:07.708Z,12.12
2017-06-14T02:04:16.593Z,12.04
2017-06-14T02:05:25.479Z,11.91
2017-06-14T02:06:34.362Z,11.91
2017-06-14T02:07:43.546Z,11.95
2017-06-14T02:08:52.431Z,11.9
2017-06-14T02:10:01.638Z,11.94
2017-06-14T02:11:10.861Z,11.83
2017-06-14T02:12:19.749Z,12.1
2017-06-14T02:13:28.835Z,11.95
2017-06-14T02:14:37.718Z,11.85
2017-06-14T02:15:47.258Z,11.76
2017-06-14T02:16:56.141Z,11.75
2017-06-14T02:18:05.354Z,11.75
2017-06-14T02:19:15.042Z,11.69
2017-06-14T02:20:23.929Z,11.73
2017-06-14T02:21:32.813Z,11.72
2017-06-14T02:22:41.700Z,11.58
2017-06-14T02:23:50.587Z,11.58
2017-06-14T02:24:59.531Z,11.58
2017-06-14T02:26:08.420Z,11.49
2017-06-14T02:27:17.629Z,11.46
2017-06-14T02:28:26.518Z,11.46
2017-06-14T02:29:35.731Z,11.51
2017-06-14T02:30:45.240Z,11.46
2017-06-14T02:31:55.098Z,11.47
2017-06-14T02:33:03.985Z,11.47
2017-06-14T02:34:13.203Z,11.44
2017-06-14T02:35:22.412Z,11.42
2017-06-14T02:36:31.395Z,11.51
2017-06-14T02:37:40.601Z,11.52
2017-06-14T02:38:50.140Z,11.51
2017-06-14T02:39:59.348Z,11.51
2017-06-14T02:41:08.232Z,11.52
2017-06-14T02:42:17.221Z,11.42
2017-06-14T02:43:26.106Z,11.44
2017-06-14T02:44:35.314Z,11.33
2017-06-14T02:45:44.848Z,11.24
2017-06-14T02:46:54.054Z,11.29
2017-06-14T02:48:03.094Z,11.29
2017-06-14T02:49:11.981Z,11.24
2017-06-14T02:50:21.206Z,11.24
2017-06-14T02:51:30.415Z,11.24
2017-06-14T02:52:39.622Z,11.22
2017-06-14T02:53:49.155Z,11.21
2017-06-14T02:54:58.420Z,11.22
2017-06-14T02:56:07.309Z,11.17
2017-06-14T02:57:16.540Z,11.1
2017-06-14T02:58:26.074Z,11.17
2017-06-14T02:59:35.438Z,11.17
2017-06-14T03:00:45.294Z,11.18
2017-06-14T03:01:54.181Z,11.17
2017-06-14T03:03:03.391Z,11.1
2017-06-14T03:04:12.924Z,11.18
2017-06-14T03:05:22.235Z,11.06
2017-06-14T03:06:31.119Z,11.02
2017-06-14T03:07:40.002Z,10.99
2017-06-14T03:08:49.215Z,11.09
2017-06-14T03:09:58.102Z,11.09
2017-06-14T03:11:07.364Z,11.11
2017-06-14T03:12:16.596Z,11.07
2017-06-14T03:13:25.484Z,11.09
2017-06-14T03:14:34.697Z,11.11
2017-06-14T03:15:43.582Z,11.07
2017-06-14T03:16:52.465Z,11.09
2017-06-14T03:18:01.675Z,11.1
2017-06-14T03:19:10.561Z,11.06
2017-06-14T03:20:19.446Z,11.1
2017-06-14T03:21:28.330Z,11.1
2017-06-14T03:22:37.639Z,11.03
2017-06-14T03:23:46.526Z,11.03
2017-06-14T03:24:56.061Z,11.07
2017-06-14T03:26:05.273Z,11.02
2017-06-14T03:27:14.163Z,11
2017-06-14T03:28:23.146Z,11.03
2017-06-14T03:29:32.030Z,11.09
2017-06-14T03:30:41.236Z,11.06
2017-06-14T03:31:50.118Z,10.97
2017-06-14T03:32:59.328Z,11.04
2017-06-14T03:34:08.366Z,11
2017-06-14T03:35:17.268Z,11.06
2017-06-14T03:36:26.153Z,10.99
2017-06-14T03:37:35.082Z,11.02
2017-06-14T03:38:43.982Z,11.06
2017-06-14T03:39:53.023Z,11.07
2017-06-14T03:41:02.554Z,11.09
2017-06-14T03:42:11.769Z,10.96
2017-06-14T03:43:20.654Z,11.03
2017-06-14T03:44:29.537Z,10.99
2017-06-14T03:45:39.221Z,11.04
2017-06-14T03:46:48.108Z,10.94
2017-06-14T03:47:56.994Z,11
2017-06-14T03:49:05.883Z,10.97
2017-06-14T03:50:14.770Z,11
2017-06-14T03:51:23.706Z,11.03
2017-06-14T03:52:32.595Z,10.99
2017-06-14T03:53:41.479Z,10.97
2017-06-14T03:54:50.363Z,10.94
2017-06-14T03:55:59.246Z,10.99
2017-06-14T03:57:08.655Z,10.94
2017-06-14T03:58:17.863Z,10.91
2017-06-14T03:59:27.074Z,11.09
2017-06-14T04:00:35.957Z,11.09
2017-06-14T04:01:45.168Z,11.09
2017-06-14T04:02:54.304Z,11
2017-06-14T04:04:03.222Z,10.96
2017-06-14T04:05:12.107Z,11.06
2017-06-14T04:06:21.321Z,11.1
2017-06-14T04:07:30.535Z,11.03
2017-06-14T04:08:39.522Z,11.02
2017-06-14T04:09:48.409Z,11.14
2017-06-14T04:10:57.623Z,11.04
2017-06-14T04:12:06.836Z,10.99
2017-06-14T04:13:15.727Z,11.03
2017-06-14T04:14:24.661Z,11.09
2017-06-14T04:15:34.517Z,11.1
2017-06-14T04:16:43.403Z,11.07
2017-06-14T04:17:52.286Z,11.09
2017-06-14T04:19:01.493Z,11.22
2017-06-14T04:20:10.397Z,11.22
2017-06-14T04:21:19.610Z,11.21
2017-06-14T04:22:28.497Z,11.28
2017-06-14T04:23:37.416Z,11.37
2017-06-14T04:24:46.952Z,11.33
2017-06-14T04:25:55.833Z,11.29
2017-06-14T04:27:04.719Z,11.32
2017-06-14T04:28:13.926Z,11.28
2017-06-14T04:29:22.809Z,11.29
2017-06-14T04:30:31.694Z,11.4
2017-06-14T04:31:40.728Z,11.43
2017-06-14T04:32:49.936Z,11.54
2017-06-14T04:33:59.147Z,11.52
2017-06-14T04:35:08.359Z,11.55
2017-06-14T04:36:17.574Z,11.44
2017-06-14T04:37:26.512Z,11.47
2017-06-14T04:38:35.720Z,11.55
2017-06-14T04:39:44.933Z,11.58
2017-06-14T04:40:53.822Z,11.61
2017-06-14T04:42:03.034Z,11.58
2017-06-14T04:43:11.918Z,11.58
2017-06-14T04:44:21.142Z,11.6
2017-06-14T04:45:30.027Z,11.57
2017-06-14T04:46:39.561Z,11.67
2017-06-14T04:47:48.447Z,11.69
2017-06-14T04:48:57.707Z,11.82
2017-06-14T04:50:06.597Z,11.69
2017-06-14T04:51:15.482Z,11.75
2017-06-14T04:52:24.365Z,11.73
2017-06-14T04:53:33.263Z,11.86
2017-06-14T04:54:42.778Z,11.75
2017-06-14T04:55:51.665Z,11.85
2017-06-14T04:57:00.549Z,11.73
2017-06-14T04:58:09.441Z,11.88
2017-06-14T04:59:19.311Z,11.98
2017-06-14T05:00:28.554Z,11.86
2017-06-14T05:01:37.453Z,11.95
2017-06-14T05:02:46.341Z,11.95
2017-06-14T05:03:55.231Z,12.09
2017-06-14T05:05:04.445Z,12.14
2017-06-14T05:06:13.959Z,12.14
2017-06-14T05:07:23.173Z,12.16
2017-06-14T05:08:32.073Z,12.27
2017-06-14T05:09:40.959Z,12.32
2017-06-14T05:10:50.169Z,12.37
2017-06-14T05:11:59.307Z,12.45
2017-06-14T05:13:08.200Z,12.38
2017-06-14T05:14:17.091Z,12.37
2017-06-14T05:15:25.978Z,12.45
2017-06-14T05:16:34.870Z,12.42
2017-06-14T05:17:44.406Z,12.38
2017-06-14T05:18:53.617Z,12.35
2017-06-14T05:20:02.498Z,12.39
2017-06-14T05:21:11.412Z,12.29
2017-06-14T05:22:20.299Z,12.41
2017-06-14T05:23:29.747Z,12.47
2017-06-14T05:24:39.074Z,12.49
2017-06-14T05:25:48.221Z,12.47
2017-06-14T05:26:57.477Z,12.5
2017-06-14T05:28:06.753Z,12.49
2017-06-14T05:29:15.737Z,12.64
2017-06-14T05:30:24.716Z,12.53
2017-06-14T05:31:33.947Z,12.71
2017-06-14T05:32:42.837Z,12.68
2017-06-14T05:33:52.048Z,12.74
2017-06-14T05:35:00.931Z,12.96
2017-06-14T05:36:10.148Z,12.93
2017-06-14T05:37:19.361Z,12.77
2017-06-14T05:38:28.637Z,12.68
2017-06-14T05:39:37.596Z,12.82
2017-06-14T05:40:46.804Z,12.77
2017-06-14T05:41:56.015Z,12.79
2017-06-14T05:43:04.906Z,12.79
2017-06-14T05:44:13.813Z,12.77
2017-06-14T05:45:23.252Z,12.9
2017-06-14T05:46:32.143Z,12.9
2017-06-14T05:47:41.360Z,12.97
2017-06-14T05:48:50.399Z,12.97
2017-06-14T05:49:59.618Z,13.03
2017-06-14T05:51:08.517Z,13.03
2017-06-14T05:52:17.416Z,13.05
2017-06-14T05:53:26.311Z,13.01
2017-06-14T05:54:35.227Z,13.11
2017-06-14T05:55:44.155Z,13.22
2017-06-14T05:56:53.108Z,13.2
2017-06-14T05:58:01.995Z,13.14
2017-06-14T05:59:10.884Z,13.26
2017-06-14T06:00:19.774Z,13.32
2017-06-14T06:01:28.668Z,13.41
2017-06-14T06:02:37.881Z,13.28
2017-06-14T06:03:46.767Z,13.42
2017-06-14T06:04:55.985Z,13.46
2017-06-14T06:06:04.875Z,13.46
2017-06-14T06:07:14.089Z,13.6
2017-06-14T06:08:22.973Z,13.59
2017-06-14T06:09:32.206Z,13.52
2017-06-14T06:10:41.755Z,13.59
2017-06-14T06:11:51.294Z,13.75
2017-06-14T06:13:00.212Z,13.73
2017-06-14T06:14:09.106Z,13.63
2017-06-14T06:15:18.322Z,13.62
2017-06-14T06:16:27.212Z,13.69
2017-06-14T06:17:36.103Z,13.67
2017-06-14T06:18:45.319Z,13.71
2017-06-14T06:19:54.684Z,13.66
2017-06-14T06:21:03.575Z,13.75
2017-06-14T06:22:12.466Z,13.75
2017-06-14T06:23:22.004Z,13.73
2017-06-14T06:24:31.217Z,13.79
2017-06-14T06:25:40.359Z,13.87
2017-06-14T06:26:49.264Z,13.88
2017-06-14T06:27:58.173Z,13.89
2017-06-14T06:29:07.079Z,14
2017-06-14T06:30:16.310Z,14
2017-06-14T06:31:25.514Z,14.02
2017-06-14T06:32:34.731Z,14.02
2017-06-14T06:33:43.948Z,13.97
2017-06-14T06:34:53.164Z,14.06
2017-06-14T06:36:02.060Z,14.06
2017-06-14T06:37:11.434Z,14.04
2017-06-14T06:38:20.662Z,14.07
2017-06-14T06:39:29.582Z,14.09
2017-06-14T06:40:38.481Z,14
2017-06-14T06:41:47.389Z,14.12
2017-06-14T06:42:56.608Z,14.25
2017-06-14T06:44:05.537Z,14.21
2017-06-14T06:45:14.446Z,14.25
2017-06-14T06:46:23.392Z,14.25
2017-06-14T06:47:32.285Z,14.28
2017-06-14T06:48:41.551Z,14.42
2017-06-14T06:49:50.454Z,14.27
2017-06-14T06:50:59.665Z,14.43
2017-06-14T06:52:08.555Z,14.47
2017-06-14T06:53:17.474Z,14.58
2017-06-14T06:54:26.906Z,14.55
2017-06-14T06:55:35.794Z,14.46
2017-06-14T06:56:44.681Z,14.58
2017-06-14T06:57:53.904Z,14.61
2017-06-14T06:59:02.798Z,14.62
2017-06-14T07:00:11.939Z,14.72
2017-06-14T07:01:21.501Z,14.73
2017-06-14T07:02:30.419Z,14.81
2017-06-14T07:03:39.707Z,14.78
2017-06-14T07:04:48.953Z,14.86
2017-06-14T07:05:58.279Z,14.77
2017-06-14T07:07:07.228Z,14.83
2017-06-14T07:08:16.129Z,14.78
2017-06-14T07:09:25.036Z,14.86
2017-06-14T07:10:33.936Z,14.8
2017-06-14T07:11:43.075Z,14.91
2017-06-14T07:12:52.003Z,14.83
2017-06-14T07:14:00.909Z,14.78
2017-06-14T07:15:09.878Z,14.95
2017-06-14T07:16:18.793Z,14.95
2017-06-14T07:17:28.160Z,14.98
2017-06-14T07:18:37.053Z,15.06
2017-06-14T07:19:45.996Z,15.14
2017-06-14T07:20:54.899Z,15.13
2017-06-14T07:22:03.845Z,15.16
2017-06-14T07:23:13.602Z,15.29
2017-06-14T07:24:22.517Z,15.25
2017-06-14T07:25:31.759Z,15.21
2017-06-14T07:26:40.768Z,15.28
2017-06-14T07:27:49.898Z,15.29
2017-06-14T07:28:59.707Z,15.29
2017-06-14T07:30:08.615Z,15.27
2017-06-14T07:31:17.542Z,15.41
2017-06-14T07:32:26.470Z,15.5
2017-06-14T07:33:35.394Z,15.43
2017-06-14T07:34:44.632Z,15.5
2017-06-14T07:35:53.573Z,15.5
2017-06-14T07:37:02.534Z,15.46
2017-06-14T07:38:11.480Z,15.39
2017-06-14T07:39:20.803Z,15.53
2017-06-14T07:40:30.101Z,15.56
2017-06-14T07:41:39.351Z,15.64
2017-06-14T07:42:48.285Z,15.69
2017-06-14T07:43:57.558Z,15.68
2017-06-14T07:45:06.860Z,15.75
2017-06-14T07:46:16.028Z,15.68
2017-06-14T07:47:25.348Z,15.68
2017-06-14T07:48:34.650Z,15.71
2017-06-14T07:49:43.592Z,15.65
2017-06-14T07:50:52.567Z,15.75
2017-06-14T07:52:01.622Z,15.69
2017-06-14T07:53:10.620Z,15.8
2017-06-14T07:54:20.312Z,15.74
2017-06-14T07:55:29.709Z,15.84
2017-06-14T07:56:38.829Z,15.86
2017-06-14T07:57:47.935Z,15.87
2017-06-14T07:58:56.882Z,15.9
2017-06-14T08:00:05.945Z,15.93
2017-06-14T08:01:14.968Z,15.94
2017-06-14T08:02:24.309Z,16
2017-06-14T08:03:33.940Z,16.08
2017-06-14T08:04:43.239Z,16.01
2017-06-14T08:05:52.203Z,16.2
2017-06-14T08:07:01.171Z,16.15
2017-06-14T08:08:10.197Z,16.25
2017-06-14T08:09:19.847Z,16.23
2017-06-14T08:10:28.806Z,16.11
2017-06-14T08:11:38.050Z,16.12
2017-06-14T08:12:46.951Z,16.31
2017-06-14T08:13:56.172Z,16.34
2017-06-14T08:15:05.187Z,16.35
2017-06-14T08:16:14.120Z,16.41
2017-06-14T08:17:23.033Z,16.46
2017-06-14T08:18:31.929Z,16.43
2017-06-14T08:19:41.148Z,16.6
2017-06-14T08:20:50.046Z,16.58
2017-06-14T08:21:59.261Z,16.52
2017-06-14T08:23:08.493Z,16.56
2017-06-14T08:24:17.389Z,16.45
2017-06-14T08:25:26.289Z,16.57
2017-06-14T08:26:35.467Z,16.5
2017-06-14T08:27:44.680Z,16.5
2017-06-14T08:28:53.577Z,16.45
2017-06-14T08:30:02.856Z,16.48
2017-06-14T08:31:11.817Z,16.58
2017-06-14T08:32:21.616Z,16.68
2017-06-14T08:33:30.902Z,16.71
2017-06-14T08:34:39.828Z,16.66
2017-06-14T08:35:48.773Z,16.73
2017-06-14T08:36:57.677Z,16.83
2017-06-14T08:38:07.202Z,16.88
2017-06-14T08:39:16.104Z,16.76
2017-06-14T08:40:25.014Z,16.91
2017-06-14T08:41:34.243Z,16.85
2017-06-14T08:42:43.164Z,17.03
2017-06-14T08:43:52.889Z,16.94
2017-06-14T08:45:01.815Z,16.98
2017-06-14T08:46:11.050Z,16.97
2017-06-14T08:47:20.286Z,16.91
2017-06-14T08:48:29.841Z,16.88
2017-06-14T08:49:38.790Z,17
2017-06-14T08:50:47.683Z,17.08
2017-06-14T08:51:56.577Z,17.07
2017-06-14T08:53:05.799Z,17.03
2017-06-14T08:54:15.033Z,17.23
2017-06-14T08:55:24.086Z,17.33
2017-06-14T08:56:32.981Z,17.33
2017-06-14T08:57:41.884Z,17.4
2017-06-14T08:58:51.110Z,17.33
2017-06-14T09:00:00.001Z,17.33
2017-06-14T09:01:09.539Z,17.4
2017-06-14T09:02:18.770Z,17.33
2017-06-14T09:03:27.994Z,17.28
2017-06-14T09:04:37.223Z,17.36
2017-06-14T09:05:46.443Z,17.43
2017-06-14T09:06:55.715Z,17.41
2017-06-14T09:08:04.939Z,17.38
2017-06-14T09:09:13.857Z,17.46
2017-06-14T09:10:22.756Z,17.56
2017-06-14T09:11:32.000Z,17.55
2017-06-14T09:12:41.277Z,17.51
2017-06-14T09:13:50.518Z,17.55
2017-06-14T09:14:59.763Z,17.56
2017-06-14T09:16:08.978Z,17.54
2017-06-14T09:17:17.885Z,17.52
2017-06-14T09:18:26.890Z,17.7
2017-06-14T09:19:35.826Z,17.72
2017-06-14T09:20:44.731Z,17.7
2017-06-14T09:21:54.307Z,17.71
2017-06-14T09:23:03.528Z,17.68
2017-06-14T09:24:12.893Z,17.78
2017-06-14T09:25:22.491Z,17.75
2017-06-14T09:26:32.033Z,17.74
2017-06-14T09:27:40.939Z,17.78
2017-06-14T09:28:49.832Z,17.84
2017-06-14T09:29:59.300Z,17.96
2017-06-14T09:31:08.248Z,18.12
2017-06-14T09:32:17.474Z,18.1
2017-06-14T09:33:26.365Z,18.08
2017-06-14T09:34:35.253Z,18.1
2017-06-14T09:35:44.524Z,18.18
2017-06-14T09:36:53.415Z,18.25
2017-06-14T09:38:02.305Z,18.17
2017-06-14T09:39:11.539Z,18.11
2017-06-14T09:40:20.763Z,18.14
2017-06-14T09:41:29.755Z,18.23
2017-06-14T09:42:38.649Z,18.23
2017-06-14T09:43:47.862Z,18.33
2017-06-14T09:44:57.076Z,18.32
2017-06-14T09:46:05.966Z,18.41
2017-06-14T09:47:15.010Z,18.41
2017-06-14T09:48:23.897Z,18.51
2017-06-14T09:49:33.124Z,18.54
2017-06-14T09:50:42.021Z,18.58
2017-06-14T09:51:50.917Z,18.58
2017-06-14T09:53:00.236Z,18.62
2017-06-14T09:54:09.136Z,18.82
2017-06-14T09:55:18.357Z,18.8
2017-06-14T09:56:27.570Z,18.92
2017-06-14T09:57:36.788Z,18.92
2017-06-14T09:58:45.780Z,18.92
2017-06-14T09:59:54.998Z,18.98
2017-06-14T10:01:04.217Z,18.9
2017-06-14T10:02:13.107Z,18.88
2017-06-14T10:03:22.333Z,18.99
2017-06-14T10:04:31.247Z,18.95
2017-06-14T10:05:40.170Z,19.18
2017-06-14T10:06:49.396Z,19.16
2017-06-14T10:07:58.292Z,19.19
2017-06-14T10:09:07.182Z,19.07
2017-06-14T10:10:16.402Z,18.94
2017-06-14T10:11:25.948Z,19.11
2017-06-14T10:12:34.841Z,19.16
2017-06-14T10:13:43.734Z,19.06
2017-06-14T10:14:52.626Z,19.16
2017-06-14T10:16:01.575Z,19.18
2017-06-14T10:17:10.475Z,19.31
2017-06-14T10:18:19.701Z,19.19
2017-06-14T10:19:28.914Z,19.18
2017-06-14T10:20:37.805Z,19.21
2017-06-14T10:21:46.847Z,19.29
2017-06-14T10:22:56.065Z,19.4
2017-06-14T10:24:05.288Z,19.55
2017-06-14T10:25:14.179Z,19.5
2017-06-14T10:26:23.079Z,19.58
2017-06-14T10:27:32.022Z,19.56
2017-06-14T10:28:41.236Z,19.68
2017-06-14T10:29:50.133Z,19.8
2017-06-14T10:30:59.357Z,19.81
2017-06-14T10:32:08.253Z,19.86
2017-06-14T10:33:17.522Z,19.74
2017-06-14T10:34:26.739Z,19.8
2017-06-14T10:35:35.637Z,19.73
2017-06-14T10:36:44.853Z,19.76
2017-06-14T10:37:53.746Z,19.84
2017-06-14T10:39:02.792Z,19.86
2017-06-14T10:40:12.013Z,19.88
2017-06-14T10:41:21.553Z,19.8
2017-06-14T10:42:30.451Z,19.88
2017-06-14T10:43:39.340Z,19.94
2017-06-14T10:44:48.557Z,19.92
2017-06-14T10:45:57.773Z,19.87
2017-06-14T10:47:06.990Z,19.91
2017-06-14T10:48:15.878Z,20.1
2017-06-14T10:49:25.090Z,20.2
2017-06-14T10:50:34.410Z,20.5
2017-06-14T10:51:43.310Z,20.66
2017-06-14T10:52:52.200Z,20.64
2017-06-14T10:54:01.095Z,20.7
2017-06-14T10:55:09.989Z,20.54
2017-06-14T10:56:19.356Z,20.5
2017-06-14T10:57:28.247Z,20.48
2017-06-14T10:58:37.142Z,20.57
2017-06-14T10:59:46.358Z,20.61
2017-06-14T11:00:55.259Z,20.67
2017-06-14T11:02:04.630Z,20.69
2017-06-14T11:03:13.523Z,20.58
2017-06-14T11:04:22.742Z,20.62
2017-06-14T11:05:31.965Z,20.5
2017-06-14T11:06:40.854Z,20.5
2017-06-14T11:07:49.747Z,20.69
2017-06-14T11:08:58.643Z,20.8
2017-06-14T11:10:07.865Z,20.94
2017-06-14T11:11:16.760Z,20.89
2017-06-14T11:12:26.297Z,21.04
2017-06-14T11:13:35.988Z,21.06
2017-06-14T11:14:44.885Z,21.16
2017-06-14T11:15:54.430Z,21.16
2017-06-14T11:17:03.326Z,21.01
2017-06-14T11:18:12.221Z,21.27
2017-06-14T11:19:21.267Z,21.27
2017-06-14T11:20:30.161Z,21.29
2017-06-14T11:21:39.382Z,21.34
2017-06-14T11:22:49.255Z,21.53
2017-06-14T11:23:58.477Z,21.59
2017-06-14T11:25:07.851Z,21.64
2017-06-14T11:26:17.072Z,21.68
2017-06-14T11:27:25.968Z,21.74
2017-06-14T11:28:35.183Z,21.84
2017-06-14T11:29:44.077Z,21.79
2017-06-14T11:30:53.448Z,21.94
2017-06-14T11:32:02.344Z,22.09
2017-06-14T11:33:11.237Z,22.24
2017-06-14T11:34:20.786Z,22.14
2017-06-14T11:35:29.686Z,22.09
2017-06-14T11:36:38.682Z,22.1
2017-06-14T11:37:47.573Z,22.14
2017-06-14T11:38:56.477Z,21.99
2017-06-14T11:40:05.699Z,22.07
2017-06-14T11:41:15.254Z,22.21
2017-06-14T11:42:24.348Z,21.98
2017-06-14T11:43:33.568Z,21.79
2017-06-14T11:44:42.465Z,21.88
2017-06-14T11:45:51.358Z,22.06
2017-06-14T11:47:00.255Z,22.14
2017-06-14T11:48:09.206Z,22.2
2017-06-14T11:49:18.104Z,22.31
2017-06-14T11:50:27.327Z,22.37
2017-06-14T11:51:36.549Z,22.33
2017-06-14T11:52:45.769Z,22.39
2017-06-14T11:53:54.664Z,22.36
2017-06-14T11:55:03.559Z,22.3
2017-06-14T11:56:12.456Z,22.31
2017-06-14T11:57:21.350Z,22.33
2017-06-14T11:58:30.246Z,22.49
2017-06-14T11:59:39.177Z,22.58
2017-06-14T12:00:48.551Z,22.75
2017-06-14T12:01:57.448Z,23.02
2017-06-14T12:03:06.345Z,23.22
2017-06-14T12:04:15.572Z,23.2
2017-06-14T12:05:25.047Z,23.23
2017-06-14T12:06:34.274Z,23.2
2017-06-14T12:07:43.501Z,23.36
2017-06-14T12:08:52.728Z,23.5
2017-06-14T12:10:01.633Z,23.57
2017-06-14T12:11:10.683Z,23.76
2017-06-14T12:12:19.582Z,23.98
2017-06-14T12:13:28.482Z,23.93
2017-06-14T12:14:37.389Z,24.1
2017-06-14T12:15:46.614Z,24.24
2017-06-14T12:16:55.994Z,24.68
2017-06-14T12:18:04.908Z,24.77
2017-06-14T12:19:13.811Z,24.8
2017-06-14T12:20:22.716Z,24.88
2017-06-14T12:21:32.275Z,24.71
2017-06-14T12:22:41.812Z,24.53
2017-06-14T12:23:51.393Z,24.4
2017-06-14T12:25:00.619Z,24.24
2017-06-14T12:26:09.853Z,23.98
2017-06-14T12:27:18.762Z,23.97
2017-06-14T12:28:28.144Z,23.91
2017-06-14T12:29:37.046Z,23.9
2017-06-14T12:30:46.273Z,23.75
2017-06-14T12:31:55.182Z,23.97
2017-06-14T12:33:04.089Z,23.98
2017-06-14T12:34:13.147Z,23.8
2017-06-14T12:35:22.047Z,23.73
2017-06-14T12:36:30.957Z,23.69
2017-06-14T12:37:39.857Z,23.78
2017-06-14T12:38:48.755Z,23.84
2017-06-14T12:39:57.711Z,24.09
2017-06-14T12:41:06.616Z,24.25
2017-06-14T12:42:15.524Z,24.64
2017-06-14T12:43:24.750Z,24.91
2017-06-14T12:44:33.675Z,25.13
2017-06-14T12:45:42.680Z,25.38
2017-06-14T12:46:51.922Z,25.57
2017-06-14T12:48:00.830Z,25.61
2017-06-14T12:49:10.082Z,25.79
2017-06-14T12:50:19.313Z,26.07
2017-06-14T12:51:28.672Z,26.32
2017-06-14T12:52:37.604Z,26.58
2017-06-14T12:53:46.842Z,26.65
2017-06-14T12:54:55.798Z,26.76
2017-06-14T12:56:05.035Z,26.88
2017-06-14T12:57:14.012Z,26.87
2017-06-14T12:58:23.573Z,26.87
2017-06-14T12:59:33.467Z,26.54
2017-06-14T13:00:42.376Z,26.77
2017-06-14T13:01:51.637Z,27.18
2017-06-14T13:03:00.974Z,27.39
2017-06-14T13:04:09.886Z,27.47
2017-06-14T13:05:18.794Z,27.49
2017-06-14T13:06:27.709Z,27.99
2017-06-14T13:07:36.621Z,27.93
2017-06-14T13:08:45.583Z,28.09
2017-06-14T13:09:54.496Z,28.25
2017-06-14T13:11:03.410Z,28.44
2017-06-14T13:12:12.645Z,28.55
2017-06-14T13:13:21.560Z,28.48
2017-06-14T13:14:31.200Z,28.25
2017-06-14T13:15:40.125Z,28.43
2017-06-14T13:16:49.093Z,28.4
2017-06-14T13:17:58.332Z,28.39
2017-06-14T13:19:07.572Z,28.62
2017-06-14T13:20:16.670Z,28.81
2017-06-14T13:21:25.584Z,28.92
2017-06-14T13:22:34.503Z,28.78
2017-06-14T13:23:43.418Z,28.3
2017-06-14T13:24:52.331Z,27.88
2017-06-14T13:26:01.391Z,27.69
2017-06-14T13:27:10.301Z,27.6
2017-06-14T13:28:19.213Z,27.28
2017-06-14T13:29:28.120Z,26.92
2017-06-14T13:30:37.031Z,26.7
2017-06-14T13:31:46.739Z,26.52
2017-06-14T13:32:55.646Z,26.4
2017-06-14T13:34:04.878Z,26.25
2017-06-14T13:35:13.791Z,26.01
2017-06-14T13:36:23.022Z,25.9
2017-06-14T13:37:32.081Z,25.95
2017-06-14T13:38:41.314Z,26.02
2017-06-14T13:39:50.218Z,25.91
2017-06-14T13:40:59.129Z,25.76
2017-06-14T13:42:08.036Z,25.7
2017-06-14T13:43:17.089Z,26.07
2017-06-14T13:44:25.994Z,26.47
2017-06-14T13:45:35.547Z,26.72
2017-06-14T13:46:44.781Z,27.17
2017-06-14T13:47:54.023Z,27.41
2017-06-14T13:49:02.931Z,27.57
2017-06-14T13:50:12.492Z,27.93
2017-06-14T13:51:21.742Z,28.04
2017-06-14T13:52:30.655Z,28.17
2017-06-14T13:53:39.563Z,28.17
2017-06-14T13:54:48.911Z,27.99
2017-06-14T13:55:57.825Z,28.11
2017-06-14T13:57:06.757Z,28.25
2017-06-14T13:58:15.673Z,28.46
2017-06-14T13:59:25.240Z,28.56
2017-06-14T14:00:34.632Z,28.8
2017-06-14T14:01:43.871Z,28.9
2017-06-14T14:02:53.107Z,28.54
2017-06-14T14:04:02.019Z,28.31
2017-06-14T14:05:10.934Z,27.94
2017-06-14T14:06:20.423Z,27.72
2017-06-14T14:07:29.338Z,27.31
2017-06-14T14:08:38.576Z,27
2017-06-14T14:09:47.486Z,26.89
2017-06-14T14:10:56.391Z,26.44
2017-06-14T14:12:05.775Z,26.48
2017-06-14T14:13:14.680Z,26.51
2017-06-14T14:14:23.912Z,26.39
2017-06-14T14:15:32.819Z,26.21
2017-06-14T14:16:41.726Z,26.15
2017-06-14T14:17:51.355Z,26.02
2017-06-14T14:19:00.264Z,25.85
2017-06-14T14:20:09.167Z,25.83
2017-06-14T14:21:18.396Z,26.15
2017-06-14T14:22:27.308Z,26.55
2017-06-14T14:23:36.363Z,26.87
2017-06-14T14:24:45.594Z,27.07
2017-06-14T14:25:54.828Z,27.39
2017-06-14T14:27:03.733Z,27.74
2017-06-14T14:28:12.644Z,27.9
2017-06-14T14:29:21.651Z,27.82
2017-06-14T14:30:30.561Z,28.04
2017-06-14T14:31:39.484Z,27.96
2017-06-14T14:32:48.403Z,27.9
2017-06-14T14:33:57.321Z,28.02
2017-06-14T14:35:06.332Z,28.06
2017-06-14T14:36:15.569Z,28.22
2017-06-14T14:37:24.480Z,28.21
2017-06-14T14:38:33.395Z,27.88
2017-06-14T14:39:42.303Z,27.55
2017-06-14T14:40:51.510Z,27.25
2017-06-14T14:42:00.420Z,27.03
2017-06-14T14:43:09.335Z,26.84
2017-06-14T14:44:18.569Z,26.65
2017-06-14T14:45:27.812Z,26.48
2017-06-14T14:46:36.969Z,26.37
2017-06-14T14:47:46.200Z,26.2
2017-06-14T14:48:55.108Z,26.02
2017-06-14T14:50:04.010Z,25.75
2017-06-14T14:51:12.940Z,25.54
2017-06-14T14:52:22.715Z,25.46
2017-06-14T14:53:32.282Z,25.43
2017-06-14T14:54:41.196Z,25.4